createdAt,value
2022-07-28T00:01:52.156Z,3.17
2022-07-28T00:04:54.151Z,3.20
2022-07-28T00:07:56.945Z,3.00
2022-07-28T00:10:58.868Z,3.40
2022-07-28T00:14:01.414Z,3.63
2022-07-28T00:17:04.001Z,3.00
2022-07-28T00:20:07.211Z,3.27
2022-07-28T00:23:09.193Z,2.97
2022-07-28T00:26:12.738Z,3.23
2022-07-28T00:29:14.640Z,3.10
2022-07-28T00:32:17.393Z,3.20
2022-07-28T00:35:30.462Z,3.00
2022-07-28T00:38:34.449Z,3.30
2022-07-28T00:41:37.245Z,2.77
2022-07-28T00:44:42.185Z,3.40
2022-07-28T00:47:44.183Z,3.23
2022-07-28T00:50:47.070Z,4.53
2022-07-28T00:53:49.571Z,4.47
2022-07-28T00:56:51.707Z,4.20
2022-07-28T00:59:54.326Z,3.10
2022-07-28T01:02:56.714Z,3.80
2022-07-28T01:05:59.035Z,3.30
2022-07-28T01:09:10.245Z,3.07
2022-07-28T01:12:25.046Z,3.60
2022-07-28T01:15:31.318Z,3.37
2022-07-28T01:18:39.515Z,3.03
2022-07-28T01:21:43.270Z,3.50
2022-07-28T01:25:06.774Z,3.33
2022-07-28T01:28:20.909Z,3.20
2022-07-28T01:31:26.615Z,3.07
2022-07-28T01:34:32.567Z,3.67
2022-07-28T01:37:41.055Z,3.40
2022-07-28T01:40:45.894Z,3.30
2022-07-28T01:44:02.293Z,3.37
2022-07-28T01:47:07.843Z,3.07
2022-07-28T01:50:12.166Z,3.30
2022-07-28T01:53:16.840Z,3.40
2022-07-28T01:56:21.109Z,3.03
2022-07-28T01:59:24.330Z,3.27
2022-07-28T02:02:28.919Z,3.80
2022-07-28T02:05:31.595Z,3.40
2022-07-28T02:08:44.405Z,3.10
2022-07-28T02:11:47.425Z,3.20
2022-07-28T02:14:50.871Z,3.30
2022-07-28T02:17:53.917Z,3.30
2022-07-28T02:20:56.069Z,3.43
2022-07-28T02:23:59.857Z,4.13
2022-07-28T02:27:09.384Z,3.90
2022-07-28T02:30:33.586Z,3.50
2022-07-28T02:33:58.618Z,3.70
2022-07-28T02:37:01.034Z,3.33
2022-07-28T02:40:05.341Z,3.67
2022-07-28T02:43:14.335Z,3.27
2022-07-28T02:46:20.784Z,4.10
2022-07-28T02:49:31.785Z,3.77
2022-07-28T02:52:34.542Z,3.27
2022-07-28T02:55:37.046Z,3.50
2022-07-28T02:58:39.780Z,3.90
2022-07-28T03:01:43.375Z,4.20
2022-07-28T03:04:58.941Z,4.17
2022-07-28T03:08:01.178Z,3.53
2022-07-28T03:11:21.202Z,4.23
2022-07-28T03:14:23.165Z,3.63
2022-07-28T03:17:25.010Z,3.63
2022-07-28T03:20:29.163Z,3.97
2022-07-28T03:23:39.000Z,3.87
2022-07-28T03:26:48.510Z,3.10
2022-07-28T03:29:59.212Z,3.67
2022-07-28T03:33:05.414Z,4.00
2022-07-28T03:36:11.854Z,3.37
2022-07-28T03:39:16.313Z,3.70
2022-07-28T03:42:19.865Z,4.13
2022-07-28T03:45:22.411Z,4.27
2022-07-28T03:48:30.326Z,4.30
2022-07-28T03:51:32.218Z,3.40
2022-07-28T03:54:34.159Z,3.60
2022-07-28T03:57:36.070Z,3.93
2022-07-28T04:00:38.015Z,3.63
2022-07-28T04:03:43.639Z,3.77
2022-07-28T04:06:46.201Z,3.33
2022-07-28T04:09:48.195Z,4.00
2022-07-28T04:12:53.835Z,4.60
2022-07-28T04:15:55.845Z,3.67
2022-07-28T04:18:57.657Z,3.40
2022-07-28T04:21:59.690Z,4.20
2022-07-28T04:25:04.445Z,4.10
2022-07-28T04:28:07.211Z,4.10
2022-07-28T04:31:09.275Z,3.40
2022-07-28T04:34:11.659Z,4.00
2022-07-28T04:37:16.504Z,3.60
2022-07-28T04:40:18.671Z,3.20
2022-07-28T04:43:23.066Z,3.57
2022-07-28T04:46:25.349Z,3.40
2022-07-28T04:49:27.544Z,3.60
2022-07-28T04:52:30.546Z,3.50
2022-07-28T04:55:33.215Z,3.83
2022-07-28T04:58:36.706Z,3.70
2022-07-28T05:01:41.324Z,3.50
2022-07-28T05:04:43.504Z,3.27
2022-07-28T05:07:45.518Z,2.90
2022-07-28T05:10:47.490Z,3.00
2022-07-28T05:13:49.473Z,3.03
2022-07-28T05:16:51.512Z,2.97
2022-07-28T05:19:54.061Z,3.13
2022-07-28T05:23:00.546Z,3.43
2022-07-28T05:26:02.444Z,3.00
2022-07-28T05:29:04.489Z,3.23
2022-07-28T05:32:15.539Z,3.30
2022-07-28T05:35:19.912Z,3.80
2022-07-28T05:38:22.336Z,3.30
2022-07-28T05:41:24.592Z,3.63
2022-07-28T05:44:26.757Z,3.00
2022-07-28T05:47:28.768Z,3.47
2022-07-28T05:50:30.717Z,2.80
2022-07-28T05:53:32.702Z,3.37
2022-07-28T05:56:34.522Z,2.97
2022-07-28T05:59:37.321Z,3.40
2022-07-28T06:02:40.038Z,3.27
2022-07-28T06:06:13.878Z,2.80
2022-07-28T06:09:04.069Z,2.90
2022-07-28T06:12:06.855Z,2.90
2022-07-28T06:15:16.591Z,2.77
2022-07-28T06:18:19.984Z,3.10
2022-07-28T06:21:24.547Z,2.70
2022-07-28T06:24:27.220Z,3.40
2022-07-28T06:27:29.049Z,2.93
2022-07-28T06:30:32.069Z,2.90
2022-07-28T06:33:33.979Z,3.00
2022-07-28T06:36:36.156Z,2.37
2022-07-28T06:39:37.988Z,2.67
2022-07-28T06:42:41.165Z,2.50
2022-07-28T06:45:45.239Z,3.20
2022-07-28T06:48:47.393Z,2.73
2022-07-28T06:51:49.609Z,2.50
2022-07-28T06:54:53.366Z,3.03
2022-07-28T06:58:00.342Z,2.85
2022-07-28T07:01:07.964Z,2.95
2022-07-28T07:04:10.106Z,2.97
2022-07-28T07:07:17.117Z,2.88
2022-07-28T07:10:19.419Z,2.88
2022-07-28T07:13:21.816Z,3.28
2022-07-28T07:16:24.101Z,3.17
2022-07-28T07:19:26.464Z,2.88
2022-07-28T07:22:28.278Z,2.92
2022-07-28T07:25:30.489Z,2.83
2022-07-28T07:28:33.811Z,2.80
2022-07-28T07:31:36.989Z,4.90
2022-07-28T07:34:39.612Z,3.15
2022-07-28T07:37:41.545Z,3.15
2022-07-28T07:40:43.375Z,3.00
2022-07-28T07:43:47.839Z,3.17
2022-07-28T07:46:49.955Z,2.88
2022-07-28T07:49:52.230Z,3.10
2022-07-28T07:52:54.080Z,2.90
2022-07-28T07:55:56.015Z,2.80
2022-07-28T07:58:58.886Z,2.60
2022-07-28T08:02:01.041Z,3.13
2022-07-28T08:05:03.102Z,2.95
2022-07-28T08:08:05.756Z,2.95
2022-07-28T08:11:08.092Z,3.17
2022-07-28T08:14:11.019Z,3.08
2022-07-28T08:17:12.979Z,2.90
2022-07-28T08:20:14.891Z,2.63
2022-07-28T08:23:16.818Z,2.50
2022-07-28T08:26:19.185Z,3.00
2022-07-28T08:29:21.131Z,2.50
2022-07-28T08:32:23.117Z,2.47
2022-07-28T08:35:34.923Z,3.00
2022-07-28T08:38:37.245Z,2.88
2022-07-28T08:42:18.966Z,2.55
2022-07-28T08:45:21.339Z,2.70
2022-07-28T08:48:27.359Z,2.75
2022-07-28T08:51:30.114Z,2.67
2022-07-28T08:54:32.104Z,2.83
2022-07-28T08:57:43.720Z,2.80
2022-07-28T09:00:46.734Z,2.65
2022-07-28T09:03:49.624Z,2.67
2022-07-28T09:06:51.474Z,2.60
2022-07-28T09:09:57.452Z,2.55
2022-07-28T09:13:04.785Z,2.33
2022-07-28T09:16:07.080Z,2.53
2022-07-28T09:19:09.043Z,2.90
2022-07-28T09:22:11.625Z,2.63
2022-07-28T09:25:19.659Z,2.40
2022-07-28T09:28:22.404Z,2.60
2022-07-28T09:31:26.578Z,3.30
2022-07-28T09:34:28.874Z,3.70
2022-07-28T09:37:30.742Z,4.28
2022-07-28T09:40:32.625Z,4.28
2022-07-28T09:43:44.947Z,4.60
2022-07-28T09:46:47.176Z,4.78
2022-07-28T09:49:49.437Z,4.03
2022-07-28T09:52:51.685Z,5.22
2022-07-28T09:56:02.889Z,4.72
2022-07-28T09:59:04.801Z,5.30
2022-07-28T10:02:08.807Z,5.80
2022-07-28T10:05:12.250Z,4.93
2022-07-28T10:08:14.474Z,5.30
2022-07-28T10:11:20.673Z,5.13
2022-07-28T10:14:32.827Z,5.22
2022-07-28T10:17:35.205Z,5.72
2022-07-28T10:20:37.554Z,5.22
2022-07-28T10:23:40.204Z,5.55
2022-07-28T10:26:45.938Z,5.43
2022-07-28T10:29:51.184Z,5.45
2022-07-28T10:32:54.815Z,5.35
2022-07-28T10:35:57.398Z,5.50
2022-07-28T10:39:04.409Z,5.20
2022-07-28T10:42:10.251Z,5.07
2022-07-28T10:45:13.285Z,5.65
2022-07-28T10:48:15.671Z,5.47
2022-07-28T10:51:18.497Z,5.55
2022-07-28T10:54:27.084Z,4.65
2022-07-28T10:57:30.983Z,5.10
2022-07-28T11:00:54.606Z,5.30
2022-07-28T11:03:57.068Z,5.53
2022-07-28T11:07:12.961Z,5.70
2022-07-28T11:10:17.304Z,5.47
2022-07-28T11:13:30.179Z,4.45
2022-07-28T11:16:36.753Z,4.38
2022-07-28T11:20:16.848Z,5.28
2022-07-28T11:23:38.880Z,5.07
2022-07-28T11:26:44.972Z,5.10
2022-07-28T11:29:47.482Z,4.50
2022-07-28T11:32:53.603Z,4.35
2022-07-28T11:35:58.009Z,4.43
2022-07-28T11:39:22.975Z,4.85
2022-07-28T11:42:31.160Z,4.50
2022-07-28T11:45:38.784Z,4.45
2022-07-28T11:48:45.017Z,3.55
2022-07-28T11:52:13.258Z,3.88
2022-07-28T11:55:19.152Z,3.42
2022-07-28T11:58:25.679Z,3.85
2022-07-28T12:01:32.555Z,3.78
2022-07-28T12:04:40.508Z,3.55
2022-07-28T12:07:48.868Z,3.00
2022-07-28T12:10:55.255Z,3.50
2022-07-28T12:14:04.936Z,3.85
2022-07-28T12:17:07.539Z,3.20
2022-07-28T12:20:13.381Z,3.45
2022-07-28T12:23:17.429Z,3.60
2022-07-28T12:26:34.524Z,3.63
2022-07-28T12:29:43.221Z,4.22
2022-07-28T12:32:45.401Z,3.53
2022-07-28T12:35:48.946Z,3.50
2022-07-28T12:38:51.804Z,3.70
2022-07-28T12:42:05.495Z,3.80
2022-07-28T12:45:10.412Z,3.70
2022-07-28T12:48:14.169Z,3.25
2022-07-28T12:51:37.494Z,3.10
2022-07-28T12:54:39.343Z,4.10
2022-07-28T12:57:49.468Z,3.72
2022-07-28T13:00:52.805Z,3.88
2022-07-28T13:03:55.067Z,3.95
2022-07-28T13:06:57.164Z,3.67
2022-07-28T13:10:05.691Z,3.83
2022-07-28T13:13:13.927Z,3.35
2022-07-28T13:16:18.107Z,2.92
2022-07-28T13:19:24.050Z,2.88
2022-07-28T13:22:30.451Z,3.47
2022-07-28T13:25:34.527Z,3.38
2022-07-28T13:28:36.832Z,3.67
2022-07-28T13:31:41.407Z,3.40
2022-07-28T13:34:44.208Z,3.45
2022-07-28T13:37:46.383Z,3.10
2022-07-28T13:40:48.518Z,3.17
2022-07-28T13:43:51.236Z,3.55
2022-07-28T13:46:53.483Z,3.28
2022-07-28T13:49:57.273Z,3.28
2022-07-28T13:53:00.120Z,2.85
2022-07-28T13:56:07.937Z,2.92
2022-07-28T13:59:11.234Z,3.20
2022-07-28T14:02:16.209Z,2.90
2022-07-28T14:05:18.899Z,3.10
2022-07-28T14:08:21.645Z,3.33
2022-07-28T14:11:27.373Z,3.20
2022-07-28T14:14:29.866Z,2.90
2022-07-28T14:17:43.755Z,3.42
2022-07-28T14:20:47.622Z,2.95
2022-07-28T14:23:49.697Z,3.05
2022-07-28T14:26:51.568Z,3.72
2022-07-28T14:29:53.938Z,2.95
2022-07-28T14:32:57.358Z,3.00
2022-07-28T14:36:00.118Z,3.10
2022-07-28T14:39:02.252Z,3.50
2022-07-28T14:42:05.175Z,3.20
2022-07-28T14:45:07.939Z,3.55
2022-07-28T14:48:10.167Z,3.42
2022-07-28T14:51:12.347Z,2.97
2022-07-28T14:54:16.614Z,3.20
2022-07-28T14:57:19.477Z,3.25
2022-07-28T15:00:23.254Z,2.80
2022-07-28T15:03:35.753Z,3.15
2022-07-28T15:06:38.248Z,3.17
2022-07-28T15:09:44.244Z,2.83
2022-07-28T15:12:50.262Z,3.28
2022-07-28T15:15:52.239Z,3.15
2022-07-28T15:18:55.133Z,2.65
2022-07-28T15:21:59.212Z,2.90
2022-07-28T15:25:04.395Z,2.95
2022-07-28T15:28:06.425Z,2.67
2022-07-28T15:31:08.774Z,2.63
2022-07-28T15:34:10.864Z,2.80
2022-07-28T15:37:12.930Z,2.33
2022-07-28T15:40:14.792Z,3.13
2022-07-28T15:43:17.578Z,2.58
2022-07-28T15:46:19.470Z,2.80
2022-07-28T15:49:21.521Z,2.70
2022-07-28T15:52:23.751Z,2.60
2022-07-28T15:55:25.691Z,3.00
2022-07-28T15:58:27.607Z,3.28
2022-07-28T16:01:30.572Z,2.92
2022-07-28T16:04:33.850Z,2.38
2022-07-28T16:07:49.797Z,2.58
2022-07-28T16:10:54.389Z,2.97
2022-07-28T16:13:56.808Z,2.88
2022-07-28T16:16:58.764Z,2.65
2022-07-28T16:20:02.306Z,3.10
2022-07-28T16:23:04.585Z,3.03
2022-07-28T16:26:09.571Z,3.38
2022-07-28T16:29:11.785Z,2.72
2022-07-28T16:32:14.335Z,2.75
2022-07-28T16:35:16.407Z,3.50
2022-07-28T16:38:18.412Z,3.40
2022-07-28T16:41:20.549Z,3.97
2022-07-28T16:44:22.722Z,4.18
2022-07-28T16:47:25.008Z,4.35
2022-07-28T16:50:27.650Z,3.75
2022-07-28T16:53:29.664Z,6.07
2022-07-28T16:56:31.869Z,5.38
2022-07-28T16:59:41.216Z,5.35
2022-07-28T17:02:49.142Z,10.40
2022-07-28T17:05:53.518Z,5.10
2022-07-28T17:08:56.349Z,4.50
2022-07-28T17:11:58.287Z,4.78
2022-07-28T17:15:00.298Z,4.30
2022-07-28T17:18:02.932Z,4.00
2022-07-28T17:21:04.976Z,4.45
2022-07-28T17:24:07.554Z,4.65
2022-07-28T17:30:33.214Z,3.92
2022-07-28T17:33:35.378Z,8.35
2022-07-28T17:36:39.198Z,4.88
2022-07-28T17:39:44.318Z,4.28
2022-07-28T17:42:46.406Z,3.80
2022-07-28T17:45:49.912Z,4.40
2022-07-28T17:48:52.303Z,4.10
2022-07-28T17:51:54.383Z,3.67
2022-07-28T17:55:14.764Z,4.10
2022-07-28T17:58:27.091Z,3.72
2022-07-28T18:01:30.219Z,5.35
2022-07-28T18:04:32.295Z,4.93
2022-07-28T18:07:49.158Z,4.47
2022-07-28T18:10:54.384Z,4.63
2022-07-28T18:14:04.309Z,5.10
2022-07-28T18:17:07.288Z,5.25
2022-07-28T18:20:10.178Z,4.88
2022-07-28T18:23:14.110Z,4.57
2022-07-28T18:26:16.258Z,4.57
2022-07-28T18:29:19.546Z,4.68
2022-07-28T18:32:21.498Z,7.63
2022-07-28T18:35:24.287Z,4.38
2022-07-28T18:38:26.258Z,4.20
2022-07-28T18:41:29.423Z,4.15
2022-07-28T18:44:36.537Z,3.97
2022-07-28T18:47:46.383Z,5.00
2022-07-28T18:50:49.688Z,5.28
2022-07-28T18:53:52.364Z,5.53
2022-07-28T18:56:54.481Z,4.70
2022-07-28T18:59:56.999Z,4.75
2022-07-28T19:02:59.075Z,4.43
2022-07-28T19:06:01.223Z,4.53
2022-07-28T19:09:03.408Z,4.97
2022-07-28T19:12:06.523Z,5.38
2022-07-28T19:15:08.750Z,4.80
2022-07-28T19:18:12.072Z,5.63
2022-07-28T19:21:14.267Z,4.80
2022-07-28T19:24:17.564Z,5.60
2022-07-28T19:27:20.863Z,4.43
2022-07-28T19:30:23.163Z,4.40
2022-07-28T19:33:28.963Z,4.78
2022-07-28T19:36:31.496Z,5.35
2022-07-28T19:39:35.888Z,5.10
2022-07-28T19:42:38.263Z,5.35
2022-07-28T19:45:40.474Z,5.13
2022-07-28T19:48:42.770Z,5.10
2022-07-28T19:51:47.503Z,5.22
2022-07-28T19:54:51.252Z,4.20
2022-07-28T19:57:59.248Z,4.97
2022-07-28T20:01:03.542Z,4.60
2022-07-28T20:04:05.765Z,5.05
2022-07-28T20:07:08.223Z,4.90
2022-07-28T20:10:11.303Z,4.70
2022-07-28T20:13:13.159Z,5.18
2022-07-28T20:16:16.500Z,5.05
2022-07-28T20:19:18.452Z,4.63
2022-07-28T20:22:20.912Z,4.90
2022-07-28T20:25:22.802Z,5.45
2022-07-28T20:28:25.015Z,5.00
2022-07-28T20:31:27.119Z,5.15
2022-07-28T20:34:30.317Z,5.50
2022-07-28T20:37:36.771Z,5.22
2022-07-28T20:40:39.572Z,5.50
2022-07-28T20:43:41.500Z,5.07
2022-07-28T20:46:43.692Z,4.93
2022-07-28T20:49:45.616Z,4.90
2022-07-28T20:52:48.906Z,3.20
2022-07-28T20:55:50.783Z,4.15
2022-07-28T20:58:52.816Z,4.00
2022-07-28T21:01:54.852Z,2.45
2022-07-28T21:04:56.916Z,1.80
2022-07-28T21:08:00.306Z,2.00
2022-07-28T21:11:03.413Z,2.15
2022-07-28T21:14:05.620Z,1.85
2022-07-28T21:17:07.991Z,1.88
2022-07-28T21:20:10.445Z,1.70
2022-07-28T21:23:13.196Z,1.88
2022-07-28T21:26:15.230Z,2.00
2022-07-28T21:32:19.004Z,1.92
2022-07-28T21:35:22.182Z,2.00
2022-07-28T21:38:24.241Z,1.88
2022-07-28T21:41:26.192Z,2.83
2022-07-28T21:44:28.156Z,2.30
2022-07-28T21:47:34.137Z,2.13
2022-07-28T21:50:37.480Z,2.50
2022-07-28T21:53:39.701Z,2.58
2022-07-28T21:56:41.660Z,2.50
2022-07-28T21:59:43.712Z,2.17
2022-07-28T22:02:49.897Z,2.27
2022-07-28T22:05:53.473Z,2.47
2022-07-28T22:08:55.393Z,2.45
2022-07-28T22:11:57.759Z,2.45
2022-07-28T22:14:59.628Z,2.50
2022-07-28T22:18:01.692Z,2.80
2022-07-28T22:21:03.892Z,3.10
2022-07-28T22:24:07.388Z,2.75
2022-07-28T22:27:09.351Z,2.55
2022-07-28T22:30:11.498Z,2.67
2022-07-28T22:33:13.473Z,2.23
2022-07-28T22:36:15.547Z,2.30
2022-07-28T22:39:17.483Z,2.20
2022-07-28T22:42:19.464Z,2.22
2022-07-28T22:45:50.344Z,2.50
2022-07-28T22:48:44.994Z,2.43
2022-07-28T22:51:48.236Z,2.33
2022-07-28T22:54:50.408Z,2.60
2022-07-28T22:57:52.403Z,1.70
2022-07-28T23:00:54.482Z,3.00
2022-07-28T23:03:57.206Z,2.50
2022-07-28T23:06:59.238Z,2.40
2022-07-28T23:10:02.154Z,2.50
2022-07-28T23:13:04.238Z,2.50
2022-07-28T23:16:10.724Z,2.60
2022-07-28T23:19:12.739Z,2.33
2022-07-28T23:22:14.737Z,2.37
2022-07-28T23:25:18.234Z,2.53
2022-07-28T23:28:20.104Z,2.20
2022-07-28T23:31:22.136Z,2.10
2022-07-28T23:34:24.095Z,2.50
2022-07-28T23:37:26.200Z,2.47
2022-07-28T23:40:28.141Z,1.93
2022-07-28T23:43:31.000Z,2.27
2022-07-28T23:46:33.369Z,2.30
2022-07-28T23:49:35.903Z,2.20
2022-07-28T23:52:37.874Z,2.27
2022-07-28T23:55:40.310Z,2.53
2022-07-28T23:58:42.669Z,2.27
